sensor_id;sensor_type;location;lat;lon;timestamp;P1;durP1;ratioP1;P2;durP2;ratioP2
2638;SDS011;1329;51.384;7.122;2023-04-01T00:00:58;3.87;;;1.67;;
2638;SDS011;1329;51.384;7.122;2023-04-01T00:03:45;4.47;;;1.50;;
2638;SDS011;1329;51.384;7.122;2023-04-01T00:06:29;2.30;;;1.60;;
2638;SDS011;1329;51.384;7.122;2023-04-01T00:09:22;2.17;;;1.53;;
2638;SDS011;1329;51.384;7.122;2023-04-01T00:11:52;2.70;;;1.60;;
2638;SDS011;1329;51.384;7.122;2023-04-01T00:14:33;2.83;;;1.70;;
2638;SDS011;1329;51.384;7.122;2023-04-01T00:17:27;2.47;;;1.60;;
2638;SDS011;1329;51.384;7.122;2023-04-01T00:20:04;2.83;;;1.40;;
2638;SDS011;1329;51.384;7.122;2023-04-01T00:22:36;2.27;;;1.60;;
2638;SDS011;1329;51.384;7.122;2023-04-01T00:25:30;1.83;;;1.60;;
2638;SDS011;1329;51.384;7.122;2023-04-01T00:28:05;2.03;;;1.80;;
2638;SDS011;1329;51.384;7.122;2023-04-01T00:30:35;2.57;;;1.80;;
2638;SDS011;1329;51.384;7.122;2023-04-01T00:33:13;3.67;;;1.90;;
2638;SDS011;1329;51.384;7.122;2023-04-01T00:35:45;2.00;;;1.63;;
2638;SDS011;1329;51.384;7.122;2023-04-01T00:38:15;3.07;;;1.63;;
2638;SDS011;1329;51.384;7.122;2023-04-01T00:40:47;2.50;;;1.80;;
2638;SDS011;1329;51.384;7.122;2023-04-01T00:43:29;3.70;;;1.70;;
2638;SDS011;1329;51.384;7.122;2023-04-01T00:45:58;1.97;;;1.73;;
2638;SDS011;1329;51.384;7.122;2023-04-01T00:48:26;2.13;;;1.60;;
2638;SDS011;1329;51.384;7.122;2023-04-01T00:51:04;2.43;;;1.47;;
2638;SDS011;1329;51.384;7.122;2023-04-01T00:53:41;3.40;;;2.00;;
2638;SDS011;1329;51.384;7.122;2023-04-01T00:56:15;1.53;;;1.43;;
2638;SDS011;1329;51.384;7.122;2023-04-01T00:58:46;2.60;;;1.40;;
2638;SDS011;1329;51.384;7.122;2023-04-01T01:01:50;1.90;;;1.50;;
2638;SDS011;1329;51.384;7.122;2023-04-01T01:04:21;2.30;;;1.20;;
2638;SDS011;1329;51.384;7.122;2023-04-01T01:06:55;2.10;;;1.50;;
2638;SDS011;1329;51.384;7.122;2023-04-01T01:09:36;1.80;;;1.50;;
2638;SDS011;1329;51.384;7.122;2023-04-01T01:12:13;1.70;;;1.60;;
2638;SDS011;1329;51.384;7.122;2023-04-01T01:14:49;2.20;;;1.40;;
2638;SDS011;1329;51.384;7.122;2023-04-01T01:17:39;1.83;;;1.70;;
2638;SDS011;1329;51.384;7.122;2023-04-01T01:27:02;1.40;;;1.30;;
2638;SDS011;1329;51.384;7.122;2023-04-01T01:29:36;1.70;;;1.40;;
2638;SDS011;1329;51.384;7.122;2023-04-01T01:32:30;2.77;;;1.53;;
2638;SDS011;1329;51.384;7.122;2023-04-01T01:35:16;2.50;;;1.40;;
2638;SDS011;1329;51.384;7.122;2023-04-01T01:37:50;1.47;;;1.20;;
2638;SDS011;1329;51.384;7.122;2023-04-01T01:40:21;1.93;;;1.40;;
2638;SDS011;1329;51.384;7.122;2023-04-01T01:42:54;3.17;;;1.40;;
2638;SDS011;1329;51.384;7.122;2023-04-01T01:45:26;1.77;;;1.40;;
2638;SDS011;1329;51.384;7.122;2023-04-01T01:47:55;1.97;;;1.50;;
2638;SDS011;1329;51.384;7.122;2023-04-01T01:50:25;1.73;;;1.23;;
2638;SDS011;1329;51.384;7.122;2023-04-01T01:53:00;1.93;;;1.30;;
2638;SDS011;1329;51.384;7.122;2023-04-01T01:55:30;3.00;;;1.77;;
2638;SDS011;1329;51.384;7.122;2023-04-01T01:58:01;4.23;;;1.57;;
2638;SDS011;1329;51.384;7.122;2023-04-01T02:00:33;2.40;;;1.60;;
2638;SDS011;1329;51.384;7.122;2023-04-01T02:03:02;3.57;;;1.50;;
2638;SDS011;1329;51.384;7.122;2023-04-01T02:05:35;1.33;;;1.23;;
2638;SDS011;1329;51.384;7.122;2023-04-01T02:08:04;2.53;;;1.60;;
2638;SDS011;1329;51.384;7.122;2023-04-01T02:10:36;2.50;;;1.30;;
2638;SDS011;1329;51.384;7.122;2023-04-01T02:13:09;2.17;;;1.40;;
2638;SDS011;1329;51.384;7.122;2023-04-01T02:15:44;1.63;;;1.30;;
2638;SDS011;1329;51.384;7.122;2023-04-01T02:18:14;1.90;;;1.47;;
2638;SDS011;1329;51.384;7.122;2023-04-01T02:20:45;2.10;;;1.40;;
2638;SDS011;1329;51.384;7.122;2023-04-01T02:23:12;1.80;;;1.50;;
2638;SDS011;1329;51.384;7.122;2023-04-01T02:25:40;1.50;;;1.40;;
2638;SDS011;1329;51.384;7.122;2023-04-01T02:28:09;1.83;;;1.30;;
2638;SDS011;1329;51.384;7.122;2023-04-01T02:30:40;1.53;;;1.27;;
2638;SDS011;1329;51.384;7.122;2023-04-01T02:33:14;1.53;;;1.33;;
2638;SDS011;1329;51.384;7.122;2023-04-01T02:35:49;1.87;;;1.33;;
2638;SDS011;1329;51.384;7.122;2023-04-01T02:38:17;1.57;;;1.23;;
2638;SDS011;1329;51.384;7.122;2023-04-01T02:40:45;1.83;;;1.30;;
2638;SDS011;1329;51.384;7.122;2023-04-01T02:43:15;2.03;;;1.30;;
2638;SDS011;1329;51.384;7.122;2023-04-01T02:45:47;1.53;;;1.10;;
2638;SDS011;1329;51.384;7.122;2023-04-01T02:48:15;2.50;;;1.10;;
2638;SDS011;1329;51.384;7.122;2023-04-01T02:50:43;2.30;;;1.00;;
2638;SDS011;1329;51.384;7.122;2023-04-01T02:53:12;1.47;;;1.20;;
2638;SDS011;1329;51.384;7.122;2023-04-01T02:55:39;1.87;;;1.10;;
2638;SDS011;1329;51.384;7.122;2023-04-01T02:58:06;1.57;;;1.30;;
2638;SDS011;1329;51.384;7.122;2023-04-01T03:00:33;1.40;;;1.20;;
2638;SDS011;1329;51.384;7.122;2023-04-01T03:03:02;1.20;;;0.90;;
2638;SDS011;1329;51.384;7.122;2023-04-01T03:05:30;1.57;;;1.30;;
2638;SDS011;1329;51.384;7.122;2023-04-01T03:07:57;5.33;;;1.10;;
2638;SDS011;1329;51.384;7.122;2023-04-01T03:10:26;1.10;;;1.00;;
2638;SDS011;1329;51.384;7.122;2023-04-01T03:12:53;1.30;;;1.10;;
2638;SDS011;1329;51.384;7.122;2023-04-01T03:15:21;2.80;;;0.83;;
2638;SDS011;1329;51.384;7.122;2023-04-01T03:17:52;1.10;;;1.00;;
2638;SDS011;1329;51.384;7.122;2023-04-01T03:20:19;1.03;;;0.90;;
2638;SDS011;1329;51.384;7.122;2023-04-01T03:22:46;0.97;;;0.90;;
2638;SDS011;1329;51.384;7.122;2023-04-01T03:25:17;1.00;;;0.90;;
2638;SDS011;1329;51.384;7.122;2023-04-01T03:27:46;1.07;;;1.00;;
2638;SDS011;1329;51.384;7.122;2023-04-01T03:30:16;1.10;;;1.00;;
2638;SDS011;1329;51.384;7.122;2023-04-01T03:32:50;0.83;;;0.83;;
2638;SDS011;1329;51.384;7.122;2023-04-01T03:35:17;1.47;;;1.30;;
2638;SDS011;1329;51.384;7.122;2023-04-01T03:37:44;1.17;;;1.07;;
2638;SDS011;1329;51.384;7.122;2023-04-01T03:40:12;1.00;;;1.00;;
2638;SDS011;1329;51.384;7.122;2023-04-01T03:42:39;0.90;;;0.90;;
2638;SDS011;1329;51.384;7.122;2023-04-01T03:45:09;1.27;;;1.00;;
2638;SDS011;1329;51.384;7.122;2023-04-01T03:47:38;1.10;;;1.00;;
2638;SDS011;1329;51.384;7.122;2023-04-01T03:50:07;1.10;;;1.00;;
2638;SDS011;1329;51.384;7.122;2023-04-01T03:52:36;1.10;;;1.00;;
2638;SDS011;1329;51.384;7.122;2023-04-01T03:55:06;0.90;;;0.90;;
2638;SDS011;1329;51.384;7.122;2023-04-01T03:57:34;1.60;;;0.80;;
2638;SDS011;1329;51.384;7.122;2023-04-01T04:00:03;0.97;;;0.90;;
2638;SDS011;1329;51.384;7.122;2023-04-01T04:02:35;0.80;;;0.80;;
2638;SDS011;1329;51.384;7.122;2023-04-01T04:05:03;1.00;;;0.90;;
2638;SDS011;1329;51.384;7.122;2023-04-01T04:07:35;0.70;;;0.70;;
2638;SDS011;1329;51.384;7.122;2023-04-01T04:10:02;0.87;;;0.87;;
2638;SDS011;1329;51.384;7.122;2023-04-01T04:12:31;1.63;;;0.90;;
2638;SDS011;1329;51.384;7.122;2023-04-01T04:14:59;1.07;;;0.97;;
2638;SDS011;1329;51.384;7.122;2023-04-01T04:17:27;0.97;;;0.90;;
2638;SDS011;1329;51.384;7.122;2023-04-01T04:19:55;1.17;;;1.00;;
2638;SDS011;1329;51.384;7.122;2023-04-01T04:22:23;1.23;;;1.13;;
2638;SDS011;1329;51.384;7.122;2023-04-01T04:24:50;1.20;;;1.10;;
2638;SDS011;1329;51.384;7.122;2023-04-01T04:27:17;1.30;;;1.20;;
2638;SDS011;1329;51.384;7.122;2023-04-01T04:29:45;1.20;;;1.10;;
2638;SDS011;1329;51.384;7.122;2023-04-01T04:32:13;1.00;;;0.93;;
2638;SDS011;1329;51.384;7.122;2023-04-01T04:34:40;1.17;;;1.03;;
2638;SDS011;1329;51.384;7.122;2023-04-01T04:37:09;1.57;;;1.20;;
2638;SDS011;1329;51.384;7.122;2023-04-01T04:39:36;0.97;;;0.83;;
2638;SDS011;1329;51.384;7.122;2023-04-01T04:42:06;1.10;;;1.00;;
2638;SDS011;1329;51.384;7.122;2023-04-01T04:44:33;1.30;;;1.20;;
2638;SDS011;1329;51.384;7.122;2023-04-01T04:47:00;1.57;;;0.90;;
2638;SDS011;1329;51.384;7.122;2023-04-01T04:49:27;1.00;;;1.00;;
2638;SDS011;1329;51.384;7.122;2023-04-01T04:51:55;0.80;;;0.80;;
2638;SDS011;1329;51.384;7.122;2023-04-01T04:54:23;1.33;;;0.80;;
2638;SDS011;1329;51.384;7.122;2023-04-01T04:56:51;0.67;;;0.63;;
2638;SDS011;1329;51.384;7.122;2023-04-01T04:59:22;1.00;;;0.90;;
2638;SDS011;1329;51.384;7.122;2023-04-01T05:01:52;1.00;;;0.90;;
2638;SDS011;1329;51.384;7.122;2023-04-01T05:04:19;1.13;;;0.83;;
2638;SDS011;1329;51.384;7.122;2023-04-01T05:06:52;1.10;;;0.80;;
2638;SDS011;1329;51.384;7.122;2023-04-01T05:09:20;0.90;;;0.90;;
2638;SDS011;1329;51.384;7.122;2023-04-01T05:11:49;2.10;;;1.07;;
2638;SDS011;1329;51.384;7.122;2023-04-01T05:14:17;1.23;;;1.10;;
2638;SDS011;1329;51.384;7.122;2023-04-01T05:16:44;1.00;;;1.00;;
2638;SDS011;1329;51.384;7.122;2023-04-01T05:19:12;1.37;;;1.27;;
2638;SDS011;1329;51.384;7.122;2023-04-01T05:21:39;1.10;;;1.10;;
2638;SDS011;1329;51.384;7.122;2023-04-01T05:24:07;1.27;;;1.17;;
2638;SDS011;1329;51.384;7.122;2023-04-01T05:26:35;1.30;;;1.20;;
2638;SDS011;1329;51.384;7.122;2023-04-01T05:29:04;1.30;;;1.20;;
2638;SDS011;1329;51.384;7.122;2023-04-01T05:31:34;1.10;;;1.10;;
2638;SDS011;1329;51.384;7.122;2023-04-01T05:34:01;1.40;;;1.30;;
2638;SDS011;1329;51.384;7.122;2023-04-01T05:36:29;1.60;;;1.23;;
2638;SDS011;1329;51.384;7.122;2023-04-01T05:38:57;1.33;;;1.27;;
2638;SDS011;1329;51.384;7.122;2023-04-01T05:41:25;1.30;;;1.20;;
2638;SDS011;1329;51.384;7.122;2023-04-01T05:43:54;1.73;;;1.23;;
2638;SDS011;1329;51.384;7.122;2023-04-01T05:46:27;1.50;;;1.40;;
2638;SDS011;1329;51.384;7.122;2023-04-01T05:48:54;1.43;;;1.33;;
2638;SDS011;1329;51.384;7.122;2023-04-01T05:51:22;1.83;;;1.17;;
2638;SDS011;1329;51.384;7.122;2023-04-01T05:53:55;1.17;;;1.17;;
2638;SDS011;1329;51.384;7.122;2023-04-01T05:56:25;1.27;;;1.17;;
2638;SDS011;1329;51.384;7.122;2023-04-01T05:58:53;1.37;;;1.27;;
2638;SDS011;1329;51.384;7.122;2023-04-01T06:01:33;1.60;;;1.20;;
2638;SDS011;1329;51.384;7.122;2023-04-01T06:04:06;1.17;;;1.17;;
2638;SDS011;1329;51.384;7.122;2023-04-01T06:06:41;1.20;;;1.10;;
2638;SDS011;1329;51.384;7.122;2023-04-01T06:09:12;1.27;;;1.17;;
2638;SDS011;1329;51.384;7.122;2023-04-01T06:11:51;1.50;;;1.40;;
2638;SDS011;1329;51.384;7.122;2023-04-01T06:14:58;1.73;;;1.40;;
2638;SDS011;1329;51.384;7.122;2023-04-01T06:18:18;1.40;;;1.30;;
2638;SDS011;1329;51.384;7.122;2023-04-01T06:21:29;1.50;;;1.23;;
2638;SDS011;1329;51.384;7.122;2023-04-01T06:24:36;1.80;;;1.50;;
2638;SDS011;1329;51.384;7.122;2023-04-01T06:27:26;1.43;;;1.33;;
2638;SDS011;1329;51.384;7.122;2023-04-01T06:30:18;1.23;;;1.20;;
2638;SDS011;1329;51.384;7.122;2023-04-01T06:33:02;1.40;;;1.30;;
2638;SDS011;1329;51.384;7.122;2023-04-01T06:36:11;1.47;;;1.13;;
2638;SDS011;1329;51.384;7.122;2023-04-01T06:39:06;1.50;;;1.40;;
2638;SDS011;1329;51.384;7.122;2023-04-01T06:42:01;2.10;;;1.37;;
2638;SDS011;1329;51.384;7.122;2023-04-01T06:44:45;1.40;;;1.30;;
2638;SDS011;1329;51.384;7.122;2023-04-01T06:47:45;1.50;;;1.40;;
2638;SDS011;1329;51.384;7.122;2023-04-01T06:50:30;1.73;;;1.63;;
2638;SDS011;1329;51.384;7.122;2023-04-01T06:53:12;1.63;;;1.53;;
2638;SDS011;1329;51.384;7.122;2023-04-01T06:55:54;2.13;;;1.90;;
2638;SDS011;1329;51.384;7.122;2023-04-01T06:58:27;1.80;;;1.70;;
2638;SDS011;1329;51.384;7.122;2023-04-01T07:01:12;2.20;;;2.00;;
2638;SDS011;1329;51.384;7.122;2023-04-01T07:03:48;1.97;;;1.87;;
2638;SDS011;1329;51.384;7.122;2023-04-01T07:06:25;2.27;;;1.90;;
2638;SDS011;1329;51.384;7.122;2023-04-01T07:08:58;1.93;;;1.77;;
2638;SDS011;1329;51.384;7.122;2023-04-01T07:11:33;2.40;;;1.93;;
2638;SDS011;1329;51.384;7.122;2023-04-01T07:14:04;2.00;;;1.90;;
2638;SDS011;1329;51.384;7.122;2023-04-01T07:16:43;1.97;;;1.70;;
2638;SDS011;1329;51.384;7.122;2023-04-01T07:19:20;1.80;;;1.70;;
2638;SDS011;1329;51.384;7.122;2023-04-01T07:21:54;1.50;;;1.40;;
2638;SDS011;1329;51.384;7.122;2023-04-01T07:24:32;1.97;;;1.77;;
2638;SDS011;1329;51.384;7.122;2023-04-01T07:27:14;1.90;;;1.50;;
2638;SDS011;1329;51.384;7.122;2023-04-01T07:29:45;1.60;;;1.50;;
2638;SDS011;1329;51.384;7.122;2023-04-01T07:32:19;1.43;;;1.33;;
2638;SDS011;1329;51.384;7.122;2023-04-01T07:34:58;1.43;;;1.33;;
2638;SDS011;1329;51.384;7.122;2023-04-01T07:37:40;1.43;;;1.33;;
2638;SDS011;1329;51.384;7.122;2023-04-01T07:40:18;1.13;;;1.13;;
2638;SDS011;1329;51.384;7.122;2023-04-01T07:43:11;1.30;;;1.20;;
2638;SDS011;1329;51.384;7.122;2023-04-01T07:46:07;1.27;;;1.27;;
2638;SDS011;1329;51.384;7.122;2023-04-01T07:49:01;1.30;;;1.20;;
2638;SDS011;1329;51.384;7.122;2023-04-01T07:51:40;1.27;;;1.27;;
2638;SDS011;1329;51.384;7.122;2023-04-01T07:54:19;1.53;;;1.43;;
2638;SDS011;1329;51.384;7.122;2023-04-01T07:56:55;1.47;;;1.37;;
2638;SDS011;1329;51.384;7.122;2023-04-01T07:59:36;1.60;;;1.50;;
2638;SDS011;1329;51.384;7.122;2023-04-01T08:02:15;1.60;;;1.50;;
2638;SDS011;1329;51.384;7.122;2023-04-01T08:05:01;1.40;;;1.30;;
2638;SDS011;1329;51.384;7.122;2023-04-01T08:07:44;1.70;;;1.60;;
2638;SDS011;1329;51.384;7.122;2023-04-01T08:10:20;1.77;;;1.67;;
2638;SDS011;1329;51.384;7.122;2023-04-01T08:12:58;1.57;;;1.47;;
2638;SDS011;1329;51.384;7.122;2023-04-01T08:15:37;1.70;;;1.60;;
2638;SDS011;1329;51.384;7.122;2023-04-01T08:18:16;1.87;;;1.77;;
2638;SDS011;1329;51.384;7.122;2023-04-01T08:20:56;2.00;;;1.90;;
2638;SDS011;1329;51.384;7.122;2023-04-01T08:23:27;2.17;;;1.90;;
2638;SDS011;1329;51.384;7.122;2023-04-01T08:26:03;2.00;;;1.90;;
2638;SDS011;1329;51.384;7.122;2023-04-01T08:28:39;2.03;;;1.90;;
2638;SDS011;1329;51.384;7.122;2023-04-01T08:31:12;2.00;;;1.90;;
2638;SDS011;1329;51.384;7.122;2023-04-01T08:33:47;2.60;;;2.40;;
2638;SDS011;1329;51.384;7.122;2023-04-01T08:36:20;2.67;;;2.47;;
2638;SDS011;1329;51.384;7.122;2023-04-01T08:38:53;2.70;;;2.50;;
2638;SDS011;1329;51.384;7.122;2023-04-01T08:44:40;2.70;;;2.50;;
2638;SDS011;1329;51.384;7.122;2023-04-01T08:47:41;2.17;;;2.07;;
2638;SDS011;1329;51.384;7.122;2023-04-01T08:50:50;2.07;;;1.87;;
2638;SDS011;1329;51.384;7.122;2023-04-01T08:54:10;2.17;;;2.07;;
2638;SDS011;1329;51.384;7.122;2023-04-01T08:57:00;2.30;;;2.20;;
2638;SDS011;1329;51.384;7.122;2023-04-01T08:59:54;2.10;;;1.93;;
2638;SDS011;1329;51.384;7.122;2023-04-01T09:02:46;2.17;;;2.00;;
2638;SDS011;1329;51.384;7.122;2023-04-01T09:05:40;2.00;;;1.90;;
2638;SDS011;1329;51.384;7.122;2023-04-01T09:08:33;2.23;;;2.10;;
2638;SDS011;1329;51.384;7.122;2023-04-01T09:11:21;2.20;;;2.10;;
2638;SDS011;1329;51.384;7.122;2023-04-01T09:14:27;2.70;;;2.50;;
2638;SDS011;1329;51.384;7.122;2023-04-01T09:20:42;2.83;;;2.63;;
2638;SDS011;1329;51.384;7.122;2023-04-01T09:23:45;3.00;;;2.80;;
2638;SDS011;1329;51.384;7.122;2023-04-01T09:26:53;3.37;;;3.17;;
2638;SDS011;1329;51.384;7.122;2023-04-01T09:29:57;3.53;;;3.30;;
2638;SDS011;1329;51.384;7.122;2023-04-01T09:33:17;3.77;;;3.47;;
2638;SDS011;1329;51.384;7.122;2023-04-01T09:36:25;4.10;;;3.80;;
2638;SDS011;1329;51.384;7.122;2023-04-01T09:39:17;4.23;;;3.93;;
2638;SDS011;1329;51.384;7.122;2023-04-01T09:42:14;5.00;;;4.60;;
2638;SDS011;1329;51.384;7.122;2023-04-01T09:45:07;4.90;;;4.50;;
2638;SDS011;1329;51.384;7.122;2023-04-01T09:48:00;5.13;;;4.73;;
2638;SDS011;1329;51.384;7.122;2023-04-01T09:50:48;5.73;;;5.23;;
2638;SDS011;1329;51.384;7.122;2023-04-01T09:53:36;5.53;;;5.07;;
2638;SDS011;1329;51.384;7.122;2023-04-01T09:59:43;5.43;;;5.00;;
2638;SDS011;1329;51.384;7.122;2023-04-01T10:06:27;5.33;;;4.93;;
2638;SDS011;1329;51.384;7.122;2023-04-01T10:09:57;5.87;;;5.37;;
2638;SDS011;1329;51.384;7.122;2023-04-01T10:20:02;6.87;;;6.27;;
2638;SDS011;1329;51.384;7.122;2023-04-01T10:22:50;6.13;;;5.63;;
2638;SDS011;1329;51.384;7.122;2023-04-01T10:25:34;6.27;;;5.77;;
2638;SDS011;1329;51.384;7.122;2023-04-01T10:28:54;5.70;;;5.20;;
2638;SDS011;1329;51.384;7.122;2023-04-01T10:32:03;5.70;;;5.13;;
2638;SDS011;1329;51.384;7.122;2023-04-01T10:35:14;6.30;;;5.80;;
2638;SDS011;1329;51.384;7.122;2023-04-01T10:53:40;5.67;;;5.20;;
2638;SDS011;1329;51.384;7.122;2023-04-01T10:56:38;5.47;;;4.97;;
2638;SDS011;1329;51.384;7.122;2023-04-01T10:59:35;5.60;;;5.03;;
2638;SDS011;1329;51.384;7.122;2023-04-01T11:16:37;4.63;;;4.30;;
2638;SDS011;1329;51.384;7.122;2023-04-01T11:23:03;4.73;;;4.33;;
2638;SDS011;1329;51.384;7.122;2023-04-01T11:26:02;4.73;;;4.33;;
2638;SDS011;1329;51.384;7.122;2023-04-01T11:31:56;4.67;;;4.33;;
2638;SDS011;1329;51.384;7.122;2023-04-01T11:37:44;5.13;;;4.73;;
2638;SDS011;1329;51.384;7.122;2023-04-01T11:40:28;6.40;;;4.70;;
2638;SDS011;1329;51.384;7.122;2023-04-01T11:43:06;5.20;;;4.80;;
2638;SDS011;1329;51.384;7.122;2023-04-01T11:45:51;5.57;;;5.07;;
2638;SDS011;1329;51.384;7.122;2023-04-01T11:48:36;5.10;;;4.70;;
2638;SDS011;1329;51.384;7.122;2023-04-01T11:51:21;5.20;;;4.80;;
2638;SDS011;1329;51.384;7.122;2023-04-01T11:57:26;4.83;;;4.43;;
2638;SDS011;1329;51.384;7.122;2023-04-01T12:00:15;4.80;;;4.40;;
2638;SDS011;1329;51.384;7.122;2023-04-01T12:03:17;4.63;;;4.23;;
2638;SDS011;1329;51.384;7.122;2023-04-01T12:06:16;4.27;;;3.97;;
2638;SDS011;1329;51.384;7.122;2023-04-01T12:09:01;5.03;;;4.63;;
2638;SDS011;1329;51.384;7.122;2023-04-01T12:11:42;5.30;;;4.90;;
2638;SDS011;1329;51.384;7.122;2023-04-01T12:14:21;5.27;;;4.87;;
2638;SDS011;1329;51.384;7.122;2023-04-01T12:17:02;4.87;;;4.47;;
2638;SDS011;1329;51.384;7.122;2023-04-01T12:19:46;4.60;;;4.20;;
2638;SDS011;1329;51.384;7.122;2023-04-01T12:22:23;4.65;;;4.28;;
2638;SDS011;1329;51.384;7.122;2023-04-01T12:25:13;4.50;;;4.20;;
2638;SDS011;1329;51.384;7.122;2023-04-01T12:28:04;4.07;;;3.78;;
2638;SDS011;1329;51.384;7.122;2023-04-01T12:30:48;4.60;;;4.20;;
2638;SDS011;1329;51.384;7.122;2023-04-01T12:33:35;4.83;;;4.43;;
2638;SDS011;1329;51.384;7.122;2023-04-01T12:39:28;4.37;;;4.07;;
2638;SDS011;1329;51.384;7.122;2023-04-01T12:42:43;4.17;;;3.87;;
2638;SDS011;1329;51.384;7.122;2023-04-01T12:45:35;4.50;;;4.10;;
2638;SDS011;1329;51.384;7.122;2023-04-01T13:01:28;6.03;;;5.53;;
2638;SDS011;1329;51.384;7.122;2023-04-01T13:07:49;6.80;;;6.13;;
2638;SDS011;1329;51.384;7.122;2023-04-01T13:10:35;7.27;;;6.63;;
2638;SDS011;1329;51.384;7.122;2023-04-01T13:16:24;7.27;;;6.57;;
2638;SDS011;1329;51.384;7.122;2023-04-01T13:18:56;7.38;;;6.65;;
2638;SDS011;1329;51.384;7.122;2023-04-01T13:21:35;7.70;;;7.07;;
2638;SDS011;1329;51.384;7.122;2023-04-01T13:24:24;7.10;;;6.40;;
2638;SDS011;1329;51.384;7.122;2023-04-01T13:27:08;6.33;;;5.67;;
2638;SDS011;1329;51.384;7.122;2023-04-01T13:29:44;6.67;;;6.07;;
2638;SDS011;1329;51.384;7.122;2023-04-01T13:32:28;6.73;;;6.07;;
2638;SDS011;1329;51.384;7.122;2023-04-01T13:35:10;6.33;;;5.83;;
2638;SDS011;1329;51.384;7.122;2023-04-01T13:37:52;6.67;;;6.07;;
2638;SDS011;1329;51.384;7.122;2023-04-01T13:40:35;6.60;;;6.00;;
2638;SDS011;1329;51.384;7.122;2023-04-01T13:43:12;6.03;;;5.43;;
2638;SDS011;1329;51.384;7.122;2023-04-01T13:46:02;6.20;;;5.60;;
2638;SDS011;1329;51.384;7.122;2023-04-01T13:49:07;5.53;;;5.10;;
2638;SDS011;1329;51.384;7.122;2023-04-01T13:52:08;5.13;;;4.73;;
2638;SDS011;1329;51.384;7.122;2023-04-01T13:55:16;5.73;;;5.23;;
2638;SDS011;1329;51.384;7.122;2023-04-01T14:01:19;5.30;;;4.80;;
2638;SDS011;1329;51.384;7.122;2023-04-01T14:04:12;5.40;;;4.90;;
2638;SDS011;1329;51.384;7.122;2023-04-01T14:07:07;4.73;;;4.33;;
2638;SDS011;1329;51.384;7.122;2023-04-01T14:09:47;5.47;;;4.97;;
2638;SDS011;1329;51.384;7.122;2023-04-01T14:12:44;4.90;;;4.50;;
2638;SDS011;1329;51.384;7.122;2023-04-01T14:15:35;5.50;;;5.00;;
2638;SDS011;1329;51.384;7.122;2023-04-01T14:18:15;5.40;;;4.90;;
2638;SDS011;1329;51.384;7.122;2023-04-01T14:21:06;5.13;;;4.63;;
2638;SDS011;1329;51.384;7.122;2023-04-01T14:23:50;5.83;;;5.23;;
2638;SDS011;1329;51.384;7.122;2023-04-01T14:29:56;5.40;;;4.90;;
2638;SDS011;1329;51.384;7.122;2023-04-01T14:32:44;4.90;;;4.50;;
2638;SDS011;1329;51.384;7.122;2023-04-01T14:35:29;4.53;;;4.13;;
2638;SDS011;1329;51.384;7.122;2023-04-01T14:41:06;4.23;;;3.83;;
2638;SDS011;1329;51.384;7.122;2023-04-01T14:44:01;4.83;;;4.43;;
2638;SDS011;1329;51.384;7.122;2023-04-01T14:50:08;4.53;;;4.13;;
2638;SDS011;1329;51.384;7.122;2023-04-01T14:52:58;5.43;;;4.13;;
2638;SDS011;1329;51.384;7.122;2023-04-01T14:55:52;5.23;;;4.73;;
2638;SDS011;1329;51.384;7.122;2023-04-01T14:58:39;5.30;;;4.83;;
2638;SDS011;1329;51.384;7.122;2023-04-01T15:01:32;5.50;;;4.73;;
2638;SDS011;1329;51.384;7.122;2023-04-01T15:04:30;5.70;;;4.63;;
2638;SDS011;1329;51.384;7.122;2023-04-01T15:07:35;5.27;;;4.77;;
2638;SDS011;1329;51.384;7.122;2023-04-01T15:10:44;5.90;;;5.30;;
2638;SDS011;1329;51.384;7.122;2023-04-01T15:13:40;5.43;;;4.97;;
2638;SDS011;1329;51.384;7.122;2023-04-01T15:16:41;5.83;;;5.33;;
2638;SDS011;1329;51.384;7.122;2023-04-01T15:19:24;6.53;;;5.93;;
2638;SDS011;1329;51.384;7.122;2023-04-01T15:22:18;6.17;;;5.67;;
2638;SDS011;1329;51.384;7.122;2023-04-01T15:25:21;6.47;;;5.97;;
2638;SDS011;1329;51.384;7.122;2023-04-01T15:28:06;6.07;;;5.57;;
2638;SDS011;1329;51.384;7.122;2023-04-01T15:30:48;6.70;;;6.10;;
2638;SDS011;1329;51.384;7.122;2023-04-01T15:33:33;6.60;;;6.10;;
2638;SDS011;1329;51.384;7.122;2023-04-01T15:36:17;6.83;;;6.33;;
2638;SDS011;1329;51.384;7.122;2023-04-01T15:39:00;9.37;;;8.47;;
2638;SDS011;1329;51.384;7.122;2023-04-01T15:41:42;7.50;;;6.83;;
2638;SDS011;1329;51.384;7.122;2023-04-01T15:44:42;7.13;;;6.53;;
2638;SDS011;1329;51.384;7.122;2023-04-01T15:47:32;6.63;;;6.03;;
2638;SDS011;1329;51.384;7.122;2023-04-01T15:53:30;6.43;;;5.93;;
2638;SDS011;1329;51.384;7.122;2023-04-01T15:56:13;5.27;;;4.87;;
2638;SDS011;1329;51.384;7.122;2023-04-01T15:58:55;7.27;;;6.60;;
2638;SDS011;1329;51.384;7.122;2023-04-01T16:01:43;5.53;;;5.03;;
2638;SDS011;1329;51.384;7.122;2023-04-01T16:04:24;4.63;;;4.33;;
2638;SDS011;1329;51.384;7.122;2023-04-01T16:07:19;3.97;;;3.67;;
2638;SDS011;1329;51.384;7.122;2023-04-01T16:10:21;4.10;;;3.77;;
2638;SDS011;1329;51.384;7.122;2023-04-01T16:13:10;4.03;;;3.73;;
2638;SDS011;1329;51.384;7.122;2023-04-01T16:15:52;4.07;;;3.77;;
2638;SDS011;1329;51.384;7.122;2023-04-01T16:18:36;3.50;;;3.30;;
2638;SDS011;1329;51.384;7.122;2023-04-01T16:21:23;3.53;;;3.23;;
2638;SDS011;1329;51.384;7.122;2023-04-01T16:24:10;3.23;;;3.03;;
2638;SDS011;1329;51.384;7.122;2023-04-01T16:26:48;3.20;;;3.00;;
2638;SDS011;1329;51.384;7.122;2023-04-01T16:29:30;3.23;;;2.87;;
2638;SDS011;1329;51.384;7.122;2023-04-01T16:32:14;3.17;;;2.87;;
2638;SDS011;1329;51.384;7.122;2023-04-01T16:34:55;4.07;;;3.77;;
2638;SDS011;1329;51.384;7.122;2023-04-01T16:37:50;4.13;;;3.83;;
2638;SDS011;1329;51.384;7.122;2023-04-01T16:40:24;5.47;;;4.97;;
2638;SDS011;1329;51.384;7.122;2023-04-01T16:43:06;5.07;;;4.67;;
2638;SDS011;1329;51.384;7.122;2023-04-01T16:45:56;5.27;;;4.87;;
2638;SDS011;1329;51.384;7.122;2023-04-01T16:48:55;5.83;;;5.33;;
2638;SDS011;1329;51.384;7.122;2023-04-01T16:51:46;5.90;;;5.40;;
2638;SDS011;1329;51.384;7.122;2023-04-01T16:54:35;6.07;;;5.47;;
2638;SDS011;1329;51.384;7.122;2023-04-01T16:57:21;6.47;;;5.97;;
2638;SDS011;1329;51.384;7.122;2023-04-01T17:00:14;6.10;;;5.50;;
2638;SDS011;1329;51.384;7.122;2023-04-01T17:02:49;7.00;;;6.40;;
2638;SDS011;1329;51.384;7.122;2023-04-01T17:05:37;8.17;;;7.47;;
2638;SDS011;1329;51.384;7.122;2023-04-01T17:08:20;7.40;;;6.70;;
2638;SDS011;1329;51.384;7.122;2023-04-01T17:11:03;7.97;;;7.30;;
2638;SDS011;1329;51.384;7.122;2023-04-01T17:13:46;8.63;;;7.93;;
2638;SDS011;1329;51.384;7.122;2023-04-01T17:19:56;6.77;;;6.23;;
2638;SDS011;1329;51.384;7.122;2023-04-01T17:22:44;6.27;;;5.77;;
2638;SDS011;1329;51.384;7.122;2023-04-01T17:25:27;6.67;;;6.07;;
2638;SDS011;1329;51.384;7.122;2023-04-01T17:28:12;6.53;;;6.00;;
2638;SDS011;1329;51.384;7.122;2023-04-01T17:30:57;6.97;;;6.37;;
2638;SDS011;1329;51.384;7.122;2023-04-01T17:33:50;7.03;;;6.43;;
2638;SDS011;1329;51.384;7.122;2023-04-01T17:36:48;5.93;;;5.50;;
2638;SDS011;1329;51.384;7.122;2023-04-01T17:42:40;5.50;;;5.03;;
2638;SDS011;1329;51.384;7.122;2023-04-01T17:45:18;5.97;;;5.47;;
2638;SDS011;1329;51.384;7.122;2023-04-01T17:47:59;6.60;;;5.90;;
2638;SDS011;1329;51.384;7.122;2023-04-01T17:50:43;6.20;;;5.60;;
2638;SDS011;1329;51.384;7.122;2023-04-01T17:53:32;6.70;;;6.10;;
2638;SDS011;1329;51.384;7.122;2023-04-01T17:56:28;6.30;;;5.70;;
2638;SDS011;1329;51.384;7.122;2023-04-01T17:59:16;6.27;;;5.70;;
2638;SDS011;1329;51.384;7.122;2023-04-01T18:02:00;6.43;;;5.83;;
2638;SDS011;1329;51.384;7.122;2023-04-01T18:08:11;8.20;;;7.50;;
2638;SDS011;1329;51.384;7.122;2023-04-01T18:10:51;8.60;;;7.83;;
2638;SDS011;1329;51.384;7.122;2023-04-01T18:13:45;8.47;;;7.73;;
2638;SDS011;1329;51.384;7.122;2023-04-01T18:19:27;8.60;;;7.80;;
2638;SDS011;1329;51.384;7.122;2023-04-01T18:22:08;9.53;;;8.63;;
2638;SDS011;1329;51.384;7.122;2023-04-01T18:24:47;9.10;;;8.30;;
2638;SDS011;1329;51.384;7.122;2023-04-01T18:27:28;8.90;;;8.00;;
2638;SDS011;1329;51.384;7.122;2023-04-01T18:30:07;9.80;;;8.97;;
2638;SDS011;1329;51.384;7.122;2023-04-01T18:32:43;9.43;;;8.63;;
2638;SDS011;1329;51.384;7.122;2023-04-01T18:35:24;9.47;;;8.67;;
2638;SDS011;1329;51.384;7.122;2023-04-01T18:38:12;9.17;;;8.27;;
2638;SDS011;1329;51.384;7.122;2023-04-01T18:40:49;9.40;;;8.60;;
2638;SDS011;1329;51.384;7.122;2023-04-01T18:43:36;9.50;;;8.67;;
2638;SDS011;1329;51.384;7.122;2023-04-01T18:46:19;9.53;;;8.70;;